createdAt,value
2019-01-19T00:00:40.427Z,16.00
2019-01-19T00:01:40.412Z,16.00
2019-01-19T00:02:51.030Z,16.00
2019-01-19T00:03:40.398Z,16.00
2019-01-19T00:04:40.386Z,16.00
2019-01-19T00:05:40.408Z,16.00
2019-01-19T00:06:40.368Z,16.00
2019-01-19T00:07:40.363Z,16.00
2019-01-19T00:08:40.348Z,16.00
2019-01-19T00:09:40.343Z,16.00
2019-01-19T00:10:40.333Z,16.00
2019-01-19T00:11:40.362Z,16.00
2019-01-19T00:12:40.306Z,16.00
2019-01-19T00:13:40.305Z,16.00
2019-01-19T00:14:40.285Z,16.00
2019-01-19T00:15:40.280Z,16.00
2019-01-19T00:16:40.268Z,20.00
2019-01-19T00:17:40.296Z,16.00
2019-01-19T00:18:40.249Z,16.00
2019-01-19T00:19:40.243Z,16.00
2019-01-19T00:20:40.236Z,16.00
2019-01-19T00:21:40.217Z,16.00
2019-01-19T00:22:40.217Z,16.00
2019-01-19T00:23:40.284Z,16.00
2019-01-19T00:24:40.188Z,16.00
2019-01-19T00:25:40.184Z,20.00
2019-01-19T00:26:40.169Z,16.00
2019-01-19T00:27:40.162Z,16.00
2019-01-19T00:28:40.161Z,16.00
2019-01-19T00:29:40.186Z,16.00
2019-01-19T00:30:40.132Z,16.00
2019-01-19T00:31:40.127Z,16.00
2019-01-19T00:32:40.112Z,16.00
2019-01-19T00:33:50.524Z,16.00
2019-01-19T00:34:40.097Z,20.00
2019-01-19T00:35:40.125Z,16.00
2019-01-19T00:36:40.074Z,20.00
2019-01-19T00:37:40.077Z,16.00
2019-01-19T00:38:40.067Z,20.00
2019-01-19T00:39:40.047Z,20.00
2019-01-19T00:40:40.039Z,16.00
2019-01-19T00:41:40.074Z,16.00
2019-01-19T00:42:40.018Z,16.00
2019-01-19T00:43:40.004Z,16.00
2019-01-19T00:44:39.998Z,16.00
2019-01-19T00:45:40.021Z,20.00
2019-01-19T00:46:39.986Z,16.00
2019-01-19T00:47:40.120Z,16.00
2019-01-19T00:48:39.964Z,20.00
2019-01-19T00:49:39.952Z,16.00
2019-01-19T00:50:39.937Z,16.00
2019-01-19T00:51:39.927Z,20.00
2019-01-19T00:52:39.929Z,16.00
2019-01-19T00:53:39.932Z,20.00
2019-01-19T00:54:39.900Z,16.00
2019-01-19T00:55:39.891Z,16.00
2019-01-19T00:56:39.880Z,16.00
2019-01-19T00:57:39.877Z,20.00
2019-01-19T00:58:39.866Z,16.00
2019-01-19T00:59:41.115Z,16.00
2019-01-19T01:00:39.841Z,16.00
2019-01-19T01:01:39.839Z,16.00
2019-01-19T01:02:39.822Z,20.00
2019-01-19T01:03:39.816Z,20.00
2019-01-19T01:04:52.409Z,20.00
2019-01-19T01:05:39.796Z,16.00
2019-01-19T01:06:39.788Z,16.00
2019-01-19T01:07:39.773Z,20.00
2019-01-19T01:08:39.766Z,16.00
2019-01-19T01:09:39.767Z,16.00
2019-01-19T01:10:39.786Z,16.00
2019-01-19T01:11:39.739Z,16.00
2019-01-19T01:12:39.737Z,16.00
2019-01-19T01:13:39.719Z,16.00
2019-01-19T01:14:39.708Z,16.00
2019-01-19T01:15:39.698Z,16.00
2019-01-19T01:16:39.729Z,16.00
2019-01-19T01:17:39.687Z,16.00
2019-01-19T01:18:39.671Z,16.00
2019-01-19T01:19:39.661Z,16.00
2019-01-19T01:20:39.654Z,20.00
2019-01-19T01:21:39.641Z,16.00
2019-01-19T01:22:39.668Z,16.00
2019-01-19T01:23:39.636Z,20.00
2019-01-19T01:24:39.609Z,16.00
2019-01-19T01:25:39.599Z,16.00
2019-01-19T01:26:39.591Z,16.00
2019-01-19T01:27:39.586Z,16.00
2019-01-19T01:28:39.613Z,20.00
2019-01-19T01:29:40.358Z,20.00
2019-01-19T01:30:39.556Z,16.00
2019-01-19T01:31:39.540Z,20.00
2019-01-19T01:32:39.531Z,20.00
2019-01-19T01:33:39.521Z,20.00
2019-01-19T01:34:39.555Z,20.00
2019-01-19T01:35:49.379Z,16.00
2019-01-19T01:36:39.496Z,20.00
2019-01-19T01:37:39.486Z,16.00
2019-01-19T01:38:39.477Z,20.00
2019-01-19T01:39:39.463Z,20.00
2019-01-19T01:40:39.513Z,16.00
2019-01-19T01:41:39.445Z,16.00
2019-01-19T01:42:39.442Z,16.00
2019-01-19T01:43:39.432Z,20.00
2019-01-19T01:44:39.417Z,16.00
2019-01-19T01:45:39.411Z,16.00
2019-01-19T01:46:39.435Z,20.00
2019-01-19T01:47:39.387Z,20.00
2019-01-19T01:48:39.385Z,20.00
2019-01-19T01:49:39.366Z,16.00
2019-01-19T01:50:39.364Z,20.00
2019-01-19T01:51:39.351Z,20.00
2019-01-19T01:52:39.383Z,16.00
2019-01-19T01:53:39.334Z,20.00
2019-01-19T01:54:39.327Z,20.00
2019-01-19T01:55:39.310Z,16.00
2019-01-19T01:56:39.298Z,20.00
2019-01-19T01:57:39.294Z,16.00
2019-01-19T01:58:39.316Z,16.00
2019-01-19T01:59:39.270Z,16.00
2019-01-19T02:00:39.277Z,16.00
2019-01-19T02:01:39.253Z,16.00
2019-01-19T02:02:39.242Z,16.00
2019-01-19T02:03:39.238Z,16.00
2019-01-19T02:04:39.261Z,16.00
2019-01-19T02:05:40.422Z,16.00
2019-01-19T02:06:49.310Z,16.00
2019-01-19T02:07:39.196Z,16.00
2019-01-19T02:08:39.184Z,16.00
2019-01-19T02:09:39.180Z,16.00
2019-01-19T02:10:39.421Z,16.00
2019-01-19T02:11:39.162Z,16.00
2019-01-19T02:12:39.144Z,16.00
2019-01-19T02:13:39.140Z,16.00
2019-01-19T02:14:39.127Z,16.00
2019-01-19T02:15:39.118Z,16.00
2019-01-19T02:16:39.126Z,16.00
2019-01-19T02:17:39.096Z,16.00
2019-01-19T02:18:39.087Z,16.00
2019-01-19T02:19:39.082Z,16.00
2019-01-19T02:20:39.066Z,16.00
2019-01-19T02:21:39.058Z,16.00
2019-01-19T02:22:39.084Z,16.00
2019-01-19T02:23:39.039Z,16.00
2019-01-19T02:24:39.028Z,20.00
2019-01-19T02:25:39.024Z,16.00
2019-01-19T02:26:39.008Z,16.00
2019-01-19T02:27:39.003Z,20.00
2019-01-19T02:28:39.158Z,20.00
2019-01-19T02:29:38.986Z,16.00
2019-01-19T02:30:38.975Z,20.00
2019-01-19T02:31:38.971Z,16.00
2019-01-19T02:32:38.957Z,16.00
2019-01-19T02:33:38.946Z,20.00
2019-01-19T02:34:38.955Z,20.00
2019-01-19T02:35:38.923Z,16.00
2019-01-19T02:36:38.917Z,20.00
2019-01-19T02:37:49.094Z,20.00
2019-01-19T02:38:38.896Z,20.00
2019-01-19T02:39:38.883Z,16.00
2019-01-19T02:40:38.913Z,20.00
2019-01-19T02:41:38.867Z,16.00
2019-01-19T02:42:38.878Z,20.00
2019-01-19T02:43:38.844Z,20.00
2019-01-19T02:44:38.839Z,16.00
2019-01-19T02:45:38.861Z,20.00
2019-01-19T02:46:38.834Z,20.00
2019-01-19T02:47:38.806Z,20.00
2019-01-19T02:48:38.801Z,16.00
2019-01-19T02:49:38.791Z,20.00
2019-01-19T02:50:38.789Z,20.00
2019-01-19T02:51:38.776Z,20.00
2019-01-19T02:52:38.797Z,20.00
2019-01-19T02:53:38.746Z,16.00
2019-01-19T02:54:38.737Z,20.00
2019-01-19T02:55:38.727Z,16.00
2019-01-19T02:56:38.733Z,20.00
2019-01-19T02:57:38.717Z,20.00
2019-01-19T02:58:38.732Z,16.00
2019-01-19T02:59:38.695Z,20.00
2019-01-19T03:00:38.680Z,16.00
2019-01-19T03:01:38.671Z,20.00
2019-01-19T03:02:38.669Z,20.00
2019-01-19T03:03:38.663Z,16.00
2019-01-19T03:04:38.717Z,20.00
2019-01-19T03:05:38.635Z,20.00
2019-01-19T03:06:38.624Z,20.00
2019-01-19T03:07:38.615Z,20.00
2019-01-19T03:08:48.649Z,20.00
2019-01-19T03:09:38.595Z,20.00
2019-01-19T03:10:38.626Z,20.00
2019-01-19T03:11:38.572Z,20.00
2019-01-19T03:12:38.565Z,16.00
2019-01-19T03:13:38.566Z,20.00
2019-01-19T03:14:38.556Z,20.00
2019-01-19T03:15:38.536Z,20.00
2019-01-19T03:16:38.709Z,16.00
2019-01-19T03:17:38.522Z,20.00
2019-01-19T03:18:38.510Z,20.00
2019-01-19T03:19:38.499Z,20.00
2019-01-19T03:20:38.489Z,16.00
2019-01-19T03:21:38.486Z,20.00
2019-01-19T03:22:38.499Z,20.00
2019-01-19T03:23:38.457Z,20.00
2019-01-19T03:24:38.452Z,20.00
2019-01-19T03:25:38.438Z,16.00
2019-01-19T03:26:38.433Z,20.00
2019-01-19T03:27:38.427Z,20.00
2019-01-19T03:28:38.446Z,20.00
2019-01-19T03:29:38.400Z,20.00
2019-01-19T03:30:38.410Z,16.00
2019-01-19T03:31:38.387Z,20.00
2019-01-19T03:32:38.372Z,20.00
2019-01-19T03:33:38.369Z,20.00
2019-01-19T03:34:38.527Z,20.00
2019-01-19T03:35:38.340Z,20.00
2019-01-19T03:36:38.345Z,20.00
2019-01-19T03:37:38.323Z,16.00
2019-01-19T03:38:38.317Z,20.00
2019-01-19T03:39:48.456Z,20.00
2019-01-19T03:40:38.295Z,16.00
2019-01-19T03:41:38.282Z,20.00
2019-01-19T03:42:38.272Z,20.00
2019-01-19T03:43:38.264Z,20.00
2019-01-19T03:44:38.265Z,16.00
2019-01-19T03:45:38.281Z,20.00
2019-01-19T03:46:38.233Z,16.00
2019-01-19T03:47:38.240Z,20.00
2019-01-19T03:48:38.218Z,16.00
2019-01-19T03:49:38.208Z,20.00
2019-01-19T03:50:38.193Z,16.00
2019-01-19T03:51:38.229Z,16.00
2019-01-19T03:52:38.180Z,20.00
2019-01-19T03:53:38.172Z,20.00
2019-01-19T03:54:38.166Z,16.00
2019-01-19T03:55:38.151Z,16.00
2019-01-19T03:56:38.138Z,20.00
2019-01-19T03:57:38.167Z,20.00
2019-01-19T03:58:38.123Z,20.00
2019-01-19T03:59:38.123Z,16.00
2019-01-19T04:00:38.104Z,16.00
2019-01-19T04:01:38.093Z,20.00
2019-01-19T04:02:38.084Z,20.00
2019-01-19T04:03:38.104Z,20.00
2019-01-19T04:04:38.063Z,20.00
2019-01-19T04:05:38.058Z,16.00
2019-01-19T04:06:38.044Z,16.00
2019-01-19T04:07:38.028Z,20.00
2019-01-19T04:08:38.038Z,20.00
2019-01-19T04:09:38.052Z,20.00
2019-01-19T04:10:48.364Z,20.00
2019-01-19T04:11:37.992Z,16.00
2019-01-19T04:12:37.983Z,16.00
2019-01-19T04:13:37.978Z,16.00
2019-01-19T04:14:37.963Z,16.00
2019-01-19T04:15:37.999Z,16.00
2019-01-19T04:16:37.942Z,16.00
2019-01-19T04:17:37.932Z,20.00
2019-01-19T04:18:37.929Z,16.00
2019-01-19T04:19:37.913Z,16.00
2019-01-19T04:20:37.903Z,16.00
2019-01-19T04:21:37.936Z,16.00
2019-01-19T04:22:37.888Z,16.00
2019-01-19T04:23:37.881Z,20.00
2019-01-19T04:24:37.917Z,16.00
2019-01-19T04:25:37.856Z,16.00
2019-01-19T04:26:37.850Z,20.00
2019-01-19T04:27:37.877Z,20.00
2019-01-19T04:28:37.826Z,20.00
2019-01-19T04:29:37.821Z,20.00
2019-01-19T04:30:37.816Z,20.00
2019-01-19T04:31:37.795Z,20.00
2019-01-19T04:32:37.786Z,20.00
2019-01-19T04:33:37.818Z,20.00
2019-01-19T04:34:37.767Z,16.00
2019-01-19T04:35:37.780Z,16.00
2019-01-19T04:36:37.761Z,16.00
2019-01-19T04:37:37.745Z,20.00
2019-01-19T04:38:37.729Z,16.00
2019-01-19T04:39:37.765Z,20.00
2019-01-19T04:40:37.718Z,16.00
2019-01-19T04:41:47.649Z,20.00
2019-01-19T04:42:37.696Z,16.00
2019-01-19T04:43:37.690Z,20.00
2019-01-19T04:44:37.674Z,16.00
2019-01-19T04:45:37.751Z,16.00
2019-01-19T04:46:37.659Z,20.00
2019-01-19T04:47:37.661Z,16.00
2019-01-19T04:48:37.631Z,20.00
2019-01-19T04:49:37.635Z,16.00
2019-01-19T04:50:37.614Z,20.00
2019-01-19T04:51:37.644Z,16.00
2019-01-19T04:52:37.592Z,20.00
2019-01-19T04:53:37.588Z,16.00
2019-01-19T04:54:37.577Z,16.00
2019-01-19T04:55:37.569Z,16.00
2019-01-19T04:56:37.562Z,16.00
2019-01-19T04:57:37.717Z,16.00
2019-01-19T04:58:37.543Z,20.00
2019-01-19T04:59:37.523Z,20.00
2019-01-19T05:00:37.525Z,20.00
2019-01-19T05:01:37.518Z,20.00
2019-01-19T05:02:37.504Z,16.00
2019-01-19T05:03:37.502Z,16.00
2019-01-19T05:04:37.476Z,20.00
2019-01-19T05:05:37.470Z,20.00
2019-01-19T05:06:37.469Z,20.00
2019-01-19T05:07:37.451Z,20.00
2019-01-19T05:08:37.445Z,20.00
2019-01-19T05:09:37.467Z,20.00
2019-01-19T05:10:37.417Z,20.00
2019-01-19T05:11:37.413Z,20.00
2019-01-19T05:12:47.885Z,16.00
2019-01-19T05:13:37.387Z,16.00
2019-01-19T05:14:37.380Z,16.00
2019-01-19T05:15:37.385Z,16.00
2019-01-19T05:16:37.371Z,16.00
2019-01-19T05:17:37.358Z,20.00
2019-01-19T05:18:37.349Z,20.00
2019-01-19T05:19:37.331Z,20.00
2019-01-19T05:20:37.336Z,16.00
2019-01-19T05:21:37.352Z,16.00
2019-01-19T05:22:37.304Z,20.00
2019-01-19T05:23:37.295Z,20.00
2019-01-19T05:24:37.287Z,20.00
2019-01-19T05:25:37.282Z,20.00
2019-01-19T05:26:37.271Z,20.00
2019-01-19T05:27:37.433Z,20.00
2019-01-19T05:28:37.248Z,20.00
2019-01-19T05:29:37.241Z,20.00
2019-01-19T05:30:37.240Z,16.00
2019-01-19T05:31:37.235Z,20.00
2019-01-19T05:32:37.207Z,20.00
2019-01-19T05:33:37.231Z,20.00
2019-01-19T05:34:37.193Z,20.00
2019-01-19T05:35:37.176Z,16.00
2019-01-19T05:36:38.536Z,20.00
2019-01-19T05:37:37.169Z,20.00
2019-01-19T05:38:37.146Z,16.00
2019-01-19T05:39:37.175Z,16.00
2019-01-19T05:40:37.127Z,16.00
2019-01-19T05:41:37.125Z,16.00
2019-01-19T05:42:37.115Z,16.00
2019-01-19T05:43:47.148Z,16.00
2019-01-19T05:44:37.100Z,16.00
2019-01-19T05:45:37.122Z,16.00
2019-01-19T05:46:37.073Z,16.00
2019-01-19T05:47:37.064Z,16.00
2019-01-19T05:48:37.059Z,16.00
2019-01-19T05:49:37.044Z,16.00
2019-01-19T05:50:37.036Z,16.00
2019-01-19T05:51:37.066Z,16.00
2019-01-19T05:52:37.014Z,16.00
2019-01-19T05:53:37.005Z,16.00
2019-01-19T05:54:37.003Z,16.00
2019-01-19T05:55:36.994Z,16.00
2019-01-19T05:56:36.975Z,16.00
2019-01-19T05:57:36.983Z,16.00
2019-01-19T05:58:36.957Z,20.00
2019-01-19T05:59:36.953Z,20.00
2019-01-19T06:00:36.940Z,20.00
2019-01-19T06:01:36.943Z,16.00
2019-01-19T06:02:36.914Z,16.00
2019-01-19T06:03:36.957Z,20.00
2019-01-19T06:04:36.896Z,20.00
2019-01-19T06:05:36.887Z,20.00
2019-01-19T06:06:36.877Z,20.00
2019-01-19T06:07:36.895Z,20.00
2019-01-19T06:08:36.859Z,24.00
2019-01-19T06:09:36.870Z,16.00
2019-01-19T06:10:36.840Z,20.00
2019-01-19T06:11:36.828Z,20.00
2019-01-19T06:12:36.821Z,20.00
2019-01-19T06:13:36.819Z,20.00
2019-01-19T06:14:47.492Z,24.00
2019-01-19T06:15:36.794Z,24.00
2019-01-19T06:16:36.779Z,24.00
2019-01-19T06:17:36.780Z,28.00
2019-01-19T06:18:36.765Z,28.00
2019-01-19T06:19:36.763Z,28.00
2019-01-19T06:20:36.841Z,32.00
2019-01-19T06:21:36.738Z,32.00
2019-01-19T06:22:36.734Z,36.00
2019-01-19T06:23:36.714Z,36.00
2019-01-19T06:24:36.709Z,40.00
2019-01-19T06:25:36.702Z,40.00
2019-01-19T06:26:36.725Z,48.00
2019-01-19T06:27:36.693Z,48.00
2019-01-19T06:28:36.673Z,52.00
2019-01-19T06:29:36.662Z,56.00
2019-01-19T06:30:36.653Z,60.00
2019-01-19T06:31:36.643Z,64.00
2019-01-19T06:32:36.681Z,68.00
2019-01-19T06:33:36.629Z,72.00
2019-01-19T06:34:36.618Z,80.00
2019-01-19T06:35:36.603Z,88.00
2019-01-19T06:36:36.587Z,96.00
2019-01-19T06:37:36.586Z,100.00
2019-01-19T06:38:36.607Z,108.00
2019-01-19T06:39:36.562Z,116.00
2019-01-19T06:40:36.564Z,120.00
2019-01-19T06:41:36.544Z,128.00
2019-01-19T06:42:36.530Z,140.00
2019-01-19T06:43:36.526Z,156.00
2019-01-19T06:44:36.553Z,172.00
2019-01-19T06:45:46.528Z,192.00
2019-01-19T06:46:36.496Z,204.00
2019-01-19T06:47:36.487Z,220.00
2019-01-19T06:48:36.475Z,228.00
2019-01-19T06:49:36.467Z,236.00
2019-01-19T06:50:36.511Z,256.00
2019-01-19T06:51:36.449Z,272.00
2019-01-19T06:52:36.439Z,296.00
2019-01-19T06:53:36.443Z,308.00
2019-01-19T06:54:36.420Z,336.00
2019-01-19T06:55:36.410Z,348.00
2019-01-19T06:56:36.433Z,352.00
2019-01-19T06:57:36.389Z,368.00
2019-01-19T06:58:36.389Z,388.00
2019-01-19T06:59:36.366Z,408.00
2019-01-19T07:00:36.362Z,424.00
2019-01-19T07:01:36.351Z,444.00
2019-01-19T07:02:36.379Z,460.00
2019-01-19T07:03:36.334Z,492.00
2019-01-19T07:04:36.337Z,512.00
2019-01-19T07:05:36.310Z,548.00
2019-01-19T07:06:36.302Z,576.00
2019-01-19T07:07:36.290Z,624.00
2019-01-19T07:08:36.317Z,672.00
2019-01-19T07:09:36.279Z,708.00
2019-01-19T07:10:36.275Z,712.00
2019-01-19T07:11:36.251Z,748.00
2019-01-19T07:12:36.245Z,804.00
2019-01-19T07:13:36.236Z,832.00
2019-01-19T07:14:36.263Z,864.00
2019-01-19T07:15:36.211Z,872.00
2019-01-19T07:16:46.469Z,900.00
2019-01-19T07:17:36.194Z,908.00
2019-01-19T07:18:36.185Z,912.00
2019-01-19T07:19:36.179Z,944.00
2019-01-19T07:20:36.206Z,956.00
2019-01-19T07:21:36.166Z,988.00
2019-01-19T07:22:36.152Z,1000.00
2019-01-19T07:23:36.141Z,1016.00
2019-01-19T07:24:36.135Z,1044.00
2019-01-19T07:25:36.125Z,1076.00
2019-01-19T07:26:36.153Z,1088.00
2019-01-19T07:27:36.102Z,1108.00
2019-01-19T07:28:36.089Z,1128.00
2019-01-19T07:29:36.087Z,1160.00
2019-01-19T07:30:36.069Z,1236.00
2019-01-19T07:31:36.066Z,1304.00
2019-01-19T07:32:36.090Z,1304.00
2019-01-19T07:33:36.048Z,1336.00
2019-01-19T07:34:36.031Z,1400.00
2019-01-19T07:35:36.031Z,1436.00
2019-01-19T07:36:36.009Z,1444.00
2019-01-19T07:37:36.008Z,1488.00
2019-01-19T07:38:36.016Z,1520.00
2019-01-19T07:39:35.980Z,1528.00
2019-01-19T07:40:35.970Z,1468.00
2019-01-19T07:41:35.973Z,1440.00
2019-01-19T07:42:35.952Z,1468.00
2019-01-19T07:43:35.943Z,1496.00
2019-01-19T07:44:35.977Z,1516.00
2019-01-19T07:45:35.924Z,1548.00
2019-01-19T07:46:35.912Z,1556.00
2019-01-19T07:47:45.755Z,1604.00
2019-01-19T07:48:35.896Z,1684.00
2019-01-19T07:49:35.890Z,1756.00
2019-01-19T07:50:36.045Z,1792.00
2019-01-19T07:51:35.869Z,1812.00
2019-01-19T07:52:35.859Z,1788.00
2019-01-19T07:53:35.852Z,1784.00
2019-01-19T07:54:35.841Z,1860.00
2019-01-19T07:55:35.833Z,1936.00
2019-01-19T07:56:35.858Z,1964.00
2019-01-19T07:57:35.811Z,1976.00
2019-01-19T07:58:35.802Z,2028.00
2019-01-19T07:59:35.789Z,2076.00
2019-01-19T08:00:35.792Z,2096.00
2019-01-19T08:01:35.770Z,2156.00
2019-01-19T08:02:35.799Z,2236.00
2019-01-19T08:03:35.751Z,2328.00
2019-01-19T08:04:35.744Z,2432.00
2019-01-19T08:05:35.730Z,2460.00
2019-01-19T08:06:35.734Z,2500.00
2019-01-19T08:07:35.716Z,2552.00
2019-01-19T08:08:35.879Z,2644.00
2019-01-19T08:09:35.696Z,2792.00
2019-01-19T08:10:35.689Z,2912.00
2019-01-19T08:11:35.672Z,2968.00
2019-01-19T08:12:35.674Z,2968.00
2019-01-19T08:13:35.654Z,3000.00
2019-01-19T08:14:35.679Z,3092.00
2019-01-19T08:15:35.640Z,3188.00
2019-01-19T08:16:35.628Z,3252.00
2019-01-19T08:17:35.613Z,3288.00
2019-01-19T08:18:48.109Z,3324.00
2019-01-19T08:19:35.599Z,3276.00
2019-01-19T08:20:35.629Z,3208.00
2019-01-19T08:21:35.585Z,3220.00
2019-01-19T08:22:35.570Z,3344.00
2019-01-19T08:23:35.563Z,3416.00
2019-01-19T08:24:35.563Z,3404.00
2019-01-19T08:25:35.538Z,3484.00
2019-01-19T08:26:35.706Z,3628.00
2019-01-19T08:27:35.520Z,3732.00
2019-01-19T08:28:35.506Z,3784.00
2019-01-19T08:29:35.504Z,3752.00
2019-01-19T08:30:35.490Z,3768.00
2019-01-19T08:31:35.477Z,3832.00
2019-01-19T08:32:35.524Z,3848.00
2019-01-19T08:33:35.463Z,3816.00
2019-01-19T08:34:35.451Z,3784.00
2019-01-19T08:35:35.442Z,3752.00
2019-01-19T08:36:35.431Z,3788.00
2019-01-19T08:37:35.421Z,3944.00
2019-01-19T08:38:35.556Z,4160.00
2019-01-19T08:39:35.404Z,4504.00
2019-01-19T08:40:35.397Z,4936.00
2019-01-19T08:41:35.383Z,5060.00
2019-01-19T08:42:35.377Z,4928.00
2019-01-19T08:43:35.367Z,4928.00
2019-01-19T08:44:35.536Z,5048.00
2019-01-19T08:45:35.347Z,5288.00
2019-01-19T08:46:35.330Z,5508.00
2019-01-19T08:47:35.326Z,5748.00
2019-01-19T08:48:36.001Z,5968.00
2019-01-19T08:49:47.067Z,6260.00
2019-01-19T08:50:35.297Z,6540.00
2019-01-19T08:51:35.284Z,6580.00
2019-01-19T08:52:35.275Z,6384.00
2019-01-19T08:53:35.262Z,6084.00
2019-01-19T08:54:35.259Z,5604.00
2019-01-19T08:55:35.294Z,5132.00
2019-01-19T08:56:35.234Z,5324.00
2019-01-19T08:57:35.226Z,5956.00
2019-01-19T08:58:35.223Z,6696.00
2019-01-19T08:59:35.210Z,7080.00
2019-01-19T09:00:35.191Z,7144.00
2019-01-19T09:01:35.229Z,7212.00
2019-01-19T09:02:35.175Z,7384.00
2019-01-19T09:03:35.166Z,7524.00
2019-01-19T09:04:35.160Z,7600.00
2019-01-19T09:05:35.147Z,7636.00
2019-01-19T09:06:35.138Z,7664.00
2019-01-19T09:07:35.165Z,7684.00
2019-01-19T09:08:35.116Z,7712.00
2019-01-19T09:09:35.108Z,7780.00
2019-01-19T09:10:35.092Z,7936.00
2019-01-19T09:11:35.088Z,8120.00
2019-01-19T09:12:35.080Z,8232.00
2019-01-19T09:13:35.103Z,8200.00
2019-01-19T09:14:35.055Z,8124.00
2019-01-19T09:15:35.049Z,7952.00
2019-01-19T09:16:39.608Z,7560.00
2019-01-19T09:17:36.027Z,7176.00
2019-01-19T09:18:35.019Z,6628.00
2019-01-19T09:19:35.021Z,6312.00
2019-01-19T09:20:45.579Z,6136.00
2019-01-19T09:21:34.989Z,5880.00
2019-01-19T09:22:34.978Z,5780.00
2019-01-19T09:23:34.971Z,6016.00
2019-01-19T09:24:34.952Z,6596.00
2019-01-19T09:25:34.991Z,6988.00
2019-01-19T09:26:34.934Z,7288.00
2019-01-19T09:27:34.930Z,8004.00
2019-01-19T09:28:34.990Z,8852.00
2019-01-19T09:29:34.905Z,9168.00
2019-01-19T09:30:34.898Z,9308.00
2019-01-19T09:31:34.932Z,9404.00
2019-01-19T09:32:34.874Z,9648.00
2019-01-19T09:33:34.883Z,9856.00
2019-01-19T09:34:34.856Z,8764.00
2019-01-19T09:35:34.847Z,8800.00
2019-01-19T09:36:34.834Z,9860.00
2019-01-19T09:37:40.791Z,9924.00
2019-01-19T09:38:35.818Z,10756.00
2019-01-19T09:39:34.814Z,11496.00
2019-01-19T09:40:34.795Z,10960.00
2019-01-19T09:41:34.782Z,9972.00
2019-01-19T09:42:34.775Z,9216.00
2019-01-19T09:43:34.805Z,8888.00
2019-01-19T09:44:34.758Z,8584.00
2019-01-19T09:45:34.756Z,8492.00
2019-01-19T09:46:34.734Z,8520.00
2019-01-19T09:47:34.774Z,8344.00
2019-01-19T09:48:34.715Z,8132.00
2019-01-19T09:49:34.741Z,7844.00
2019-01-19T09:50:34.694Z,7528.00
2019-01-19T09:51:45.019Z,7212.00
2019-01-19T09:52:34.680Z,6904.00
2019-01-19T09:53:34.668Z,6584.00
2019-01-19T09:54:34.677Z,6332.00
2019-01-19T09:55:34.684Z,6164.00
2019-01-19T09:56:34.636Z,6032.00
2019-01-19T09:57:34.624Z,5960.00
2019-01-19T09:58:34.616Z,6004.00
2019-01-19T09:59:34.610Z,6032.00
2019-01-19T10:00:37.546Z,5968.00
2019-01-19T10:01:34.624Z,5796.00
2019-01-19T10:02:34.580Z,5596.00
2019-01-19T10:03:34.569Z,5412.00
2019-01-19T10:04:34.569Z,5300.00
2019-01-19T10:05:34.547Z,5044.00
2019-01-19T10:06:34.538Z,4876.00
2019-01-19T10:07:34.564Z,4868.00
2019-01-19T10:08:34.514Z,4840.00
2019-01-19T10:09:34.506Z,4944.00
2019-01-19T10:10:34.510Z,5016.00
2019-01-19T10:11:34.488Z,4940.00
2019-01-19T10:12:34.478Z,4828.00
2019-01-19T10:13:34.502Z,5000.00
2019-01-19T10:14:34.456Z,5116.00
2019-01-19T10:15:34.448Z,4968.00
2019-01-19T10:16:34.447Z,4844.00
2019-01-19T10:17:34.423Z,4700.00
2019-01-19T10:18:34.413Z,4596.00
2019-01-19T10:19:34.443Z,4520.00
2019-01-19T10:20:34.403Z,4480.00
2019-01-19T10:21:34.393Z,4436.00
2019-01-19T10:22:44.546Z,4372.00
2019-01-19T10:23:34.365Z,4304.00
2019-01-19T10:24:34.353Z,4292.00
2019-01-19T10:25:34.361Z,4300.00
2019-01-19T10:26:34.339Z,4324.00
2019-01-19T10:27:37.520Z,4384.00
2019-01-19T10:28:34.314Z,4400.00
2019-01-19T10:29:34.306Z,4332.00
2019-01-19T10:30:34.301Z,4204.00
2019-01-19T10:31:34.329Z,4080.00
2019-01-19T10:32:34.278Z,3944.00
2019-01-19T10:33:34.265Z,3812.00
2019-01-19T10:34:34.257Z,3740.00
2019-01-19T10:35:34.247Z,3668.00
2019-01-19T10:36:34.240Z,3624.00
2019-01-19T10:37:34.261Z,3616.00
2019-01-19T10:38:34.220Z,3652.00
2019-01-19T10:39:34.202Z,3632.00
2019-01-19T10:40:34.194Z,3492.00
2019-01-19T10:41:40.637Z,3360.00
2019-01-19T10:42:35.219Z,3292.00
2019-01-19T10:43:34.167Z,3248.00
2019-01-19T10:44:34.153Z,3208.00
2019-01-19T10:45:34.148Z,3192.00
2019-01-19T10:46:34.136Z,3216.00
2019-01-19T10:47:34.123Z,3260.00
2019-01-19T10:48:34.164Z,3244.00
2019-01-19T10:49:34.103Z,3188.00
2019-01-19T10:50:34.097Z,3112.00
2019-01-19T10:51:34.082Z,3096.00
2019-01-19T10:52:34.075Z,3096.00
2019-01-19T10:53:45.239Z,3120.00
2019-01-19T10:54:34.056Z,3132.00
2019-01-19T10:55:34.040Z,3132.00
2019-01-19T10:56:34.036Z,3124.00
2019-01-19T10:57:34.026Z,3124.00
2019-01-19T10:58:34.030Z,3116.00
2019-01-19T10:59:34.043Z,3144.00
2019-01-19T11:00:33.995Z,3172.00
2019-01-19T11:01:33.985Z,3120.00
2019-01-19T11:02:33.982Z,3052.00
2019-01-19T11:03:33.971Z,3012.00
2019-01-19T11:04:33.954Z,3008.00
2019-01-19T11:05:33.987Z,3032.00
2019-01-19T11:06:33.934Z,3124.00
2019-01-19T11:07:33.927Z,3200.00
2019-01-19T11:08:33.920Z,3288.00
2019-01-19T11:09:33.902Z,3356.00
2019-01-19T11:10:33.895Z,3392.00
2019-01-19T11:11:33.981Z,3288.00
2019-01-19T11:12:33.877Z,3280.00
2019-01-19T11:13:33.872Z,3240.00
2019-01-19T11:14:33.858Z,3292.00
2019-01-19T11:15:33.841Z,3368.00
2019-01-19T11:16:33.837Z,3336.00
2019-01-19T11:17:33.921Z,3276.00
2019-01-19T11:18:33.815Z,3280.00
2019-01-19T11:19:33.807Z,3292.00
2019-01-19T11:20:33.799Z,3296.00
2019-01-19T11:21:33.782Z,3384.00
2019-01-19T11:22:33.812Z,3504.00
2019-01-19T11:23:39.752Z,3624.00
2019-01-19T11:25:46.300Z,3676.00
2019-01-19T11:26:46.259Z,3556.00
2019-01-19T11:27:46.248Z,3484.00
2019-01-19T11:28:46.239Z,3472.00
2019-01-19T11:29:46.232Z,3544.00
2019-01-19T11:30:46.217Z,3500.00
2019-01-19T11:31:46.228Z,3568.00
2019-01-19T11:32:46.196Z,3448.00
2019-01-19T11:33:46.192Z,3312.00
2019-01-19T11:34:46.170Z,3168.00
2019-01-19T11:35:46.165Z,3172.00
2019-01-19T11:36:46.153Z,3468.00
2019-01-19T11:37:46.180Z,3756.00
2019-01-19T11:38:46.139Z,4616.00
2019-01-19T11:39:46.121Z,4664.00
2019-01-19T11:40:46.117Z,4700.00
2019-01-19T11:41:46.103Z,4472.00
2019-01-19T11:42:46.097Z,4384.00
2019-01-19T11:43:46.121Z,3948.00
2019-01-19T11:44:46.083Z,3620.00
2019-01-19T11:45:46.064Z,3508.00
2019-01-19T11:46:46.050Z,3460.00
2019-01-19T11:47:46.041Z,3412.00
2019-01-19T11:48:46.029Z,3392.00
2019-01-19T11:49:46.061Z,3264.00
2019-01-19T11:50:46.017Z,3164.00
2019-01-19T11:51:45.999Z,2976.00
2019-01-19T11:52:45.991Z,2868.00
2019-01-19T11:53:45.987Z,2748.00
2019-01-19T11:54:45.967Z,2552.00
2019-01-19T11:55:53.247Z,2432.00
2019-01-19T11:56:45.947Z,2348.00
2019-01-19T11:57:45.945Z,2388.00
2019-01-19T11:58:45.929Z,2352.00
2019-01-19T11:59:45.917Z,2320.00
2019-01-19T12:00:45.912Z,2284.00
2019-01-19T12:01:46.102Z,2332.00
2019-01-19T12:02:45.891Z,2456.00
2019-01-19T12:03:45.886Z,2600.00
2019-01-19T12:04:45.871Z,2756.00
2019-01-19T12:05:45.859Z,2772.00
2019-01-19T12:06:45.851Z,2488.00
2019-01-19T12:07:46.012Z,2404.00
2019-01-19T12:08:45.830Z,2428.00
2019-01-19T12:09:45.821Z,2428.00
2019-01-19T12:10:45.810Z,2432.00
2019-01-19T12:11:45.803Z,2392.00
2019-01-19T12:12:45.790Z,2404.00
2019-01-19T12:13:45.810Z,2416.00
2019-01-19T12:14:45.773Z,2368.00
2019-01-19T12:15:45.761Z,2348.00
2019-01-19T12:16:45.749Z,2344.00
2019-01-19T12:17:45.737Z,2372.00
2019-01-19T12:18:45.728Z,2356.00
2019-01-19T12:19:45.758Z,2296.00
2019-01-19T12:20:45.705Z,2240.00
2019-01-19T12:21:45.692Z,2200.00
2019-01-19T12:22:45.687Z,2164.00
2019-01-19T12:23:45.677Z,2128.00
2019-01-19T12:24:45.662Z,2184.00
2019-01-19T12:25:45.731Z,2408.00
2019-01-19T12:26:55.969Z,2632.00
2019-01-19T12:27:45.640Z,2520.00
2019-01-19T12:28:45.625Z,2304.00
2019-01-19T12:29:45.621Z,2180.00
2019-01-19T12:30:45.606Z,2176.00
2019-01-19T12:31:45.638Z,2256.00
2019-01-19T12:32:45.583Z,2268.00